createdAt,value
2023-01-30T00:03:25.524Z,0.90
2023-01-30T00:09:27.251Z,0.80
2023-01-30T00:15:29.034Z,0.90
2023-01-30T00:21:30.785Z,0.90
2023-01-30T00:27:32.628Z,0.90
2023-01-30T00:33:36.786Z,0.90
2023-01-30T00:39:38.536Z,0.90
2023-01-30T00:46:01.884Z,0.90
2023-01-30T00:52:04.037Z,0.90
2023-01-30T00:58:06.378Z,1.00
2023-01-30T01:04:10.408Z,1.00
2023-01-30T01:10:16.383Z,1.00
2023-01-30T01:16:28.469Z,1.00
2023-01-30T01:22:33.308Z,1.10
2023-01-30T01:28:35.212Z,1.10
2023-01-30T01:34:37.052Z,1.10
2023-01-30T01:40:57.339Z,1.00
2023-01-30T01:47:00.157Z,1.00
2023-01-30T01:53:02.266Z,1.10
2023-01-30T01:59:19.537Z,1.10
2023-01-30T02:05:21.746Z,1.20
2023-01-30T02:11:31.194Z,1.20
2023-01-30T02:17:33.084Z,1.10
2023-01-30T02:23:59.574Z,1.10
2023-01-30T02:30:23.312Z,1.10
2023-01-30T02:36:38.763Z,1.10
2023-01-30T02:43:21.420Z,1.20
2023-01-30T02:49:47.595Z,1.10
2023-01-30T02:55:49.384Z,1.10
2023-01-30T03:01:54.485Z,1.10
2023-01-30T03:08:18.015Z,1.10
2023-01-30T03:14:30.179Z,1.10
2023-01-30T03:20:37.609Z,1.00
2023-01-30T03:26:55.841Z,1.00
2023-01-30T03:32:57.722Z,1.00
2023-01-30T03:39:00.208Z,1.00
2023-01-30T03:45:02.417Z,1.10
2023-01-30T03:51:04.542Z,1.10
2023-01-30T03:57:06.411Z,1.10
2023-01-30T04:03:09.177Z,1.10
2023-01-30T04:09:11.956Z,1.10
2023-01-30T04:15:20.853Z,1.10
2023-01-30T04:21:45.995Z,1.20
2023-01-30T04:27:48.049Z,1.20
2023-01-30T04:33:53.500Z,1.20
2023-01-30T04:39:55.527Z,1.20
2023-01-30T04:45:58.841Z,1.20
2023-01-30T04:52:01.335Z,1.30
2023-01-30T04:58:03.361Z,1.30
2023-01-30T05:04:07.101Z,1.40
2023-01-30T05:10:09.600Z,1.30
2023-01-30T05:16:12.270Z,1.40
2023-01-30T05:22:14.045Z,1.40
2023-01-30T05:28:15.770Z,1.40
2023-01-30T05:34:17.534Z,1.50
2023-01-30T05:40:19.449Z,1.50
2023-01-30T05:46:21.576Z,1.60
2023-01-30T05:52:23.383Z,1.70
2023-01-30T05:58:26.287Z,1.70
2023-01-30T06:04:28.068Z,1.70
2023-01-30T06:10:29.839Z,1.70
2023-01-30T06:16:31.683Z,1.70
2023-01-30T06:22:33.567Z,1.70
2023-01-30T06:28:36.542Z,1.80
2023-01-30T06:34:38.299Z,1.80
2023-01-30T06:40:41.718Z,1.90
2023-01-30T06:46:43.519Z,1.90
2023-01-30T06:52:50.355Z,1.90
2023-01-30T06:58:52.613Z,2.00
2023-01-30T07:04:54.563Z,2.10
2023-01-30T07:10:56.350Z,2.20
2023-01-30T07:16:58.161Z,2.20
2023-01-30T07:22:59.964Z,2.40
2023-01-30T07:29:01.881Z,2.50
2023-01-30T07:35:05.915Z,2.50
2023-01-30T07:41:07.863Z,2.40
2023-01-30T07:47:09.675Z,2.40
2023-01-30T07:53:16.451Z,2.40
2023-01-30T07:59:18.265Z,2.50
2023-01-30T08:05:20.352Z,2.60
2023-01-30T08:11:22.166Z,3.00
2023-01-30T08:17:24.193Z,3.20
2023-01-30T08:23:25.985Z,3.30
2023-01-30T08:29:27.797Z,3.20
2023-01-30T08:35:29.639Z,3.60
2023-01-30T08:41:31.423Z,4.10
2023-01-30T08:47:35.542Z,4.20
2023-01-30T08:53:37.491Z,4.40
2023-01-30T08:59:39.300Z,4.50
2023-01-30T09:05:41.134Z,4.60
2023-01-30T09:11:42.904Z,4.60
2023-01-30T09:17:45.059Z,4.80
2023-01-30T09:23:46.851Z,4.80
2023-01-30T09:29:48.842Z,5.00
2023-01-30T09:35:51.325Z,5.10
2023-01-30T09:42:05.184Z,5.30
2023-01-30T09:48:19.565Z,5.50
2023-01-30T09:54:26.390Z,5.40
2023-01-30T10:00:35.904Z,5.60
2023-01-30T10:06:48.676Z,5.60
2023-01-30T10:12:57.460Z,5.80
2023-01-30T10:19:09.727Z,5.80
2023-01-30T10:25:23.172Z,5.40
2023-01-30T10:31:30.859Z,4.70
2023-01-30T10:37:42.201Z,4.20
2023-01-30T10:44:13.493Z,4.30
2023-01-30T10:50:42.469Z,4.40
2023-01-30T10:57:03.291Z,4.70
2023-01-30T11:03:20.647Z,5.00
2023-01-30T11:09:24.610Z,4.60
2023-01-30T11:15:40.137Z,3.60
2023-01-30T11:21:44.713Z,3.30
2023-01-30T11:28:14.041Z,2.80
2023-01-30T11:34:18.269Z,2.70
2023-01-30T11:40:25.797Z,3.50
2023-01-30T11:46:29.496Z,3.70
2023-01-30T11:52:38.127Z,4.20
2023-01-30T11:58:42.337Z,4.70
2023-01-30T12:04:45.729Z,4.50
2023-01-30T12:10:57.587Z,4.40
2023-01-30T12:17:04.767Z,4.20
2023-01-30T12:23:44.899Z,4.10
2023-01-30T12:29:59.212Z,4.00
2023-01-30T12:36:06.605Z,4.40
2023-01-30T12:42:33.221Z,4.90
2023-01-30T12:48:52.443Z,5.00
2023-01-30T12:55:37.355Z,5.00
2023-01-30T13:01:43.316Z,5.10
2023-01-30T13:08:00.699Z,5.20
2023-01-30T13:14:19.905Z,5.20
2023-01-30T13:20:38.338Z,5.10
2023-01-30T13:26:42.111Z,5.20
2023-01-30T13:32:48.994Z,5.10
2023-01-30T13:39:02.915Z,5.00
2023-01-30T13:45:06.358Z,4.90
2023-01-30T13:51:49.964Z,4.40
2023-01-30T13:58:21.827Z,4.40
2023-01-30T14:04:41.811Z,4.60
2023-01-30T14:10:44.060Z,4.80
2023-01-30T14:16:55.079Z,4.70
2023-01-30T14:22:58.899Z,4.70
2023-01-30T14:29:00.664Z,4.70
2023-01-30T14:35:02.475Z,4.70
2023-01-30T14:41:04.235Z,4.80
2023-01-30T14:47:33.864Z,4.90
2023-01-30T14:54:00.845Z,5.00
2023-01-30T15:00:17.991Z,5.00
2023-01-30T15:06:26.326Z,4.90
2023-01-30T15:12:59.231Z,5.00
2023-01-30T15:19:39.577Z,5.00
2023-01-30T15:26:21.553Z,5.00
2023-01-30T15:32:26.181Z,5.10
2023-01-30T15:38:34.307Z,5.10
2023-01-30T15:45:02.402Z,5.10
2023-01-30T15:51:04.503Z,5.20
2023-01-30T15:57:06.512Z,5.20
2023-01-30T16:03:13.720Z,5.20
2023-01-30T16:09:24.359Z,5.20
2023-01-30T16:15:54.831Z,4.50
2023-01-30T16:22:00.265Z,4.50
2023-01-30T16:28:02.120Z,4.70
2023-01-30T16:34:04.993Z,4.70
2023-01-30T16:40:21.690Z,4.80
2023-01-30T16:46:47.165Z,4.70
2023-01-30T16:52:55.199Z,4.80
2023-01-30T16:59:00.557Z,4.80
2023-01-30T17:05:14.533Z,4.60
2023-01-30T17:11:39.006Z,4.50
2023-01-30T17:17:44.304Z,4.50
2023-01-30T17:23:50.773Z,4.60
2023-01-30T17:29:52.539Z,4.70
2023-01-30T17:35:54.432Z,4.60
2023-01-30T17:41:56.214Z,4.50
2023-01-30T17:47:58.160Z,4.50
2023-01-30T17:54:00.098Z,4.50
2023-01-30T18:00:02.124Z,4.40
2023-01-30T18:06:13.849Z,4.40
2023-01-30T18:12:15.672Z,4.60
2023-01-30T18:18:18.185Z,4.60
2023-01-30T18:24:20.433Z,4.60
2023-01-30T18:30:24.938Z,4.70
2023-01-30T18:36:26.734Z,5.00
2023-01-30T18:42:28.992Z,5.20
2023-01-30T18:48:32.216Z,5.10
2023-01-30T18:54:34.052Z,5.10
2023-01-30T19:00:35.859Z,5.20
2023-01-30T19:06:40.253Z,5.20
2023-01-30T19:13:20.410Z,5.10
2023-01-30T19:19:22.365Z,5.10
2023-01-30T19:25:24.643Z,4.80
2023-01-30T19:31:26.586Z,4.60
2023-01-30T19:37:28.481Z,4.60
2023-01-30T19:43:30.318Z,4.40
2023-01-30T19:49:35.095Z,4.40
2023-01-30T19:55:37.611Z,4.40
2023-01-30T20:01:40.620Z,4.20
2023-01-30T20:07:42.579Z,4.10
2023-01-30T20:13:46.655Z,4.20
2023-01-30T20:19:48.483Z,4.30
2023-01-30T20:25:50.312Z,4.30
2023-01-30T20:31:55.295Z,4.30
2023-01-30T20:37:57.146Z,4.30
2023-01-30T20:43:59.467Z,4.30
2023-01-30T20:50:01.300Z,4.30
2023-01-30T20:56:04.921Z,4.40
2023-01-30T21:02:06.740Z,4.50
2023-01-30T21:08:08.634Z,4.40
2023-01-30T21:14:10.584Z,4.40
2023-01-30T21:20:12.589Z,4.60
2023-01-30T21:26:16.221Z,4.50
2023-01-30T21:32:19.045Z,4.40
2023-01-30T21:38:39.528Z,4.20
2023-01-30T21:44:41.399Z,4.10
2023-01-30T21:50:43.295Z,4.10
2023-01-30T21:56:45.808Z,4.10
2023-01-30T22:02:50.425Z,4.00
2023-01-30T22:08:56.597Z,4.00
2023-01-30T22:14:58.478Z,3.90
2023-01-30T22:21:11.094Z,4.00
2023-01-30T22:27:13.095Z,4.00
2023-01-30T22:33:15.121Z,4.10
2023-01-30T22:39:16.969Z,4.10
2023-01-30T22:45:19.199Z,4.10
2023-01-30T22:51:26.679Z,4.10
2023-01-30T22:57:28.471Z,4.20
2023-01-30T23:03:30.430Z,4.20
2023-01-30T23:09:32.322Z,4.20
2023-01-30T23:15:42.708Z,4.30
2023-01-30T23:21:45.880Z,4.20
2023-01-30T23:27:47.740Z,4.20
2023-01-30T23:33:56.663Z,4.10
2023-01-30T23:39:58.437Z,3.80
2023-01-30T23:46:12.499Z,3.50
2023-01-30T23:52:14.610Z,3.20
2023-01-30T23:58:16.436Z,3.10
